Terminal Aerodrome Forecast
Issued by NWS Cleveland, OH

Home | Current Version | Previous Version | Graphics & Text | Print | Product List | Glossary On
Versions: 1 2 3 4 5 6 7 8 9 10 11 12 13 14 15 16 17 18 19 20 21
000
FTUS41 KCLE 241136
TAFYNG
TAF
KYNG 241136Z 2412/2512 12008KT P6SM OVC035
      TEMPO 2412/2415 5SM -SHRA OVC025
     FM241500 12010KT P6SM BKN070
     FM242100 12012G20KT P6SM -SHRA OVC035
     FM250000 12012G20KT 6SM -SHRA OVC025
     FM250600 12012KT 4SM -SHRA OVC010=

USA.gov is the U.S. government's official web portal to all federal, state and local government web resources and services.